createdAt,value
2023-04-20T00:00:19.460Z,88.78
2023-04-20T00:02:47.399Z,88.82
2023-04-20T00:05:15.069Z,88.50
2023-04-20T00:07:42.973Z,88.47
2023-04-20T00:10:11.220Z,88.64
2023-04-20T00:12:38.735Z,89.03
2023-04-20T00:15:08.776Z,88.86
2023-04-20T00:17:38.414Z,88.76
2023-04-20T00:20:07.879Z,88.79
2023-04-20T00:22:35.956Z,89.06
2023-04-20T00:25:03.738Z,88.56
2023-04-20T00:27:31.245Z,88.37
2023-04-20T00:29:58.748Z,88.29
2023-04-20T00:32:28.444Z,88.74
2023-04-20T00:34:56.166Z,88.31
2023-04-20T00:37:25.697Z,88.39
2023-04-20T00:39:56.250Z,88.86
2023-04-20T00:42:25.717Z,88.54
2023-04-20T00:44:53.269Z,88.87
2023-04-20T00:47:22.554Z,88.84
2023-04-20T00:49:51.538Z,88.73
2023-04-20T00:52:19.060Z,88.92
2023-04-20T00:54:46.648Z,88.98
2023-04-20T00:57:15.179Z,89.87
2023-04-20T00:59:42.699Z,89.23
2023-04-20T01:02:10.332Z,89.85
2023-04-20T01:04:38.091Z,89.82
2023-04-20T01:07:06.988Z,89.76
2023-04-20T01:09:34.463Z,89.67
2023-04-20T01:12:02.541Z,90.31
2023-04-20T01:14:30.020Z,90.34
2023-04-20T01:16:58.457Z,90.82
2023-04-20T01:19:26.633Z,90.58
2023-04-20T01:21:54.758Z,90.35
2023-04-20T01:24:23.592Z,90.35
2023-04-20T01:26:52.115Z,90.25
2023-04-20T01:29:19.677Z,89.82
2023-04-20T01:31:47.318Z,90.13
2023-04-20T01:34:15.193Z,90.05
2023-04-20T01:36:42.687Z,89.88
2023-04-20T01:39:10.304Z,90.09
2023-04-20T01:41:39.259Z,89.71
2023-04-20T01:44:06.790Z,89.41
2023-04-20T01:46:34.282Z,88.99
2023-04-20T01:49:01.858Z,89.49
2023-04-20T01:51:30.318Z,89.64
2023-04-20T01:53:57.935Z,89.88
2023-04-20T01:56:25.527Z,89.87
2023-04-20T01:58:54.391Z,89.78
2023-04-20T02:01:22.160Z,90.17
2023-04-20T02:03:50.416Z,90.22
2023-04-20T02:06:18.165Z,90.26
2023-04-20T02:08:45.664Z,90.22
2023-04-20T02:11:13.194Z,89.81
2023-04-20T02:13:40.694Z,89.93
2023-04-20T02:16:09.556Z,90.16
2023-04-20T02:18:37.332Z,90.33
2023-04-20T02:21:05.826Z,90.24
2023-04-20T02:23:33.353Z,90.38
2023-04-20T02:26:00.826Z,90.18
2023-04-20T02:28:28.317Z,90.66
2023-04-20T02:30:56.123Z,90.27
2023-04-20T02:33:24.996Z,90.04
2023-04-20T02:35:54.408Z,89.56
2023-04-20T02:38:21.916Z,89.32
2023-04-20T02:40:49.417Z,89.08
2023-04-20T02:43:18.031Z,88.87
2023-04-20T02:45:45.859Z,88.46
2023-04-20T02:48:13.715Z,88.78
2023-04-20T02:50:44.040Z,88.80
2023-04-20T02:53:17.327Z,88.63
2023-04-20T02:55:49.282Z,88.38
2023-04-20T02:58:37.329Z,88.83
2023-04-20T03:01:15.905Z,88.76
2023-04-20T03:03:45.040Z,88.82
2023-04-20T03:06:14.588Z,88.14
2023-04-20T03:08:47.122Z,88.41
2023-04-20T03:11:39.599Z,88.17
2023-04-20T03:14:07.136Z,87.68
2023-04-20T03:16:35.393Z,87.34
2023-04-20T03:19:03.096Z,86.72
2023-04-20T03:21:33.962Z,86.88
2023-04-20T03:24:01.960Z,86.36
2023-04-20T03:26:29.788Z,85.75
2023-04-20T03:29:18.336Z,85.85
2023-04-20T03:31:46.438Z,85.87
2023-04-20T03:34:14.046Z,86.57
2023-04-20T03:36:43.513Z,85.65
2023-04-20T03:39:11.426Z,85.38
2023-04-20T03:41:38.961Z,86.03
2023-04-20T03:44:07.145Z,85.79
2023-04-20T03:46:34.675Z,84.33
2023-04-20T03:49:03.317Z,84.41
2023-04-20T03:51:31.255Z,83.78
2023-04-20T03:54:00.327Z,83.22
2023-04-20T03:56:28.440Z,82.84
2023-04-20T03:58:57.357Z,82.63
2023-04-20T04:01:26.959Z,83.00
2023-04-20T04:03:54.686Z,82.80
2023-04-20T04:06:22.350Z,83.23
2023-04-20T04:08:50.472Z,82.74
2023-04-20T04:11:19.337Z,80.82
2023-04-20T04:13:47.636Z,80.61
2023-04-20T04:16:15.645Z,81.13
2023-04-20T04:18:44.614Z,81.17
2023-04-20T04:21:12.181Z,81.57
2023-04-20T04:23:43.254Z,81.45
2023-04-20T04:26:33.591Z,81.40
2023-04-20T04:29:02.005Z,81.47
2023-04-20T04:31:29.587Z,81.82
2023-04-20T04:34:03.717Z,81.81
2023-04-20T04:36:38.417Z,81.96
2023-04-20T04:39:09.138Z,82.12
2023-04-20T04:41:39.058Z,81.81
2023-04-20T04:44:17.492Z,81.82
2023-04-20T04:46:47.384Z,82.14
2023-04-20T04:49:15.409Z,81.93
2023-04-20T04:51:43.057Z,81.85
2023-04-20T04:54:11.294Z,81.72
2023-04-20T04:56:40.104Z,81.59
2023-04-20T04:59:07.565Z,81.33
2023-04-20T05:01:35.125Z,81.58
2023-04-20T05:04:02.849Z,81.31
2023-04-20T05:06:30.855Z,80.86
2023-04-20T05:08:58.323Z,80.46
2023-04-20T05:11:25.939Z,80.16
2023-04-20T05:13:54.925Z,80.01
2023-04-20T05:16:22.472Z,80.28
2023-04-20T05:18:50.030Z,80.99
2023-04-20T05:21:17.539Z,80.39
2023-04-20T05:23:45.090Z,80.86
2023-04-20T05:26:12.613Z,80.79
2023-04-20T05:28:40.092Z,81.06
2023-04-20T05:31:08.925Z,80.53
2023-04-20T05:33:36.434Z,80.57
2023-04-20T05:36:04.264Z,80.72
2023-04-20T05:38:31.835Z,80.53
2023-04-20T05:40:59.444Z,80.48
2023-04-20T05:43:26.960Z,79.88
2023-04-20T05:45:54.540Z,78.78
2023-04-20T05:48:23.438Z,77.78
2023-04-20T05:50:51.084Z,76.32
2023-04-20T05:53:18.643Z,75.60
2023-04-20T05:55:46.276Z,75.00
2023-04-20T05:58:13.767Z,74.98
2023-04-20T06:00:41.524Z,74.94
2023-04-20T06:03:09.245Z,74.90
2023-04-20T06:05:38.276Z,75.57
2023-04-20T06:08:05.892Z,73.20
2023-04-20T06:10:34.312Z,74.78
2023-04-20T06:13:01.958Z,73.57
2023-04-20T06:15:29.532Z,73.92
2023-04-20T06:17:57.110Z,73.74
2023-04-20T06:20:24.700Z,72.55
2023-04-20T06:22:53.889Z,72.64
2023-04-20T06:25:21.540Z,72.28
2023-04-20T06:27:51.282Z,73.04
2023-04-20T06:30:20.021Z,73.12
2023-04-20T06:32:47.546Z,73.09
2023-04-20T06:35:15.188Z,71.38
2023-04-20T06:37:42.710Z,71.88
2023-04-20T06:40:13.183Z,71.57
2023-04-20T06:42:42.005Z,70.89
2023-04-20T06:45:10.372Z,71.48
2023-04-20T06:47:37.917Z,71.43
2023-04-20T06:50:09.623Z,71.66
2023-04-20T06:52:38.918Z,71.57
2023-04-20T06:55:06.978Z,71.36
2023-04-20T06:57:37.303Z,71.67
2023-04-20T07:00:06.130Z,71.58
2023-04-20T07:02:43.125Z,71.04
2023-04-20T07:05:11.537Z,71.08
2023-04-20T07:07:39.137Z,70.95
2023-04-20T07:10:07.883Z,71.36
2023-04-20T07:12:37.453Z,71.12
2023-04-20T07:15:06.071Z,70.50
2023-04-20T07:17:33.844Z,71.68
2023-04-20T07:20:07.280Z,70.68
2023-04-20T07:22:34.895Z,70.90
2023-04-20T07:25:03.001Z,70.80
2023-04-20T07:27:30.921Z,70.86
2023-04-20T07:30:00.764Z,70.22
2023-04-20T07:32:28.373Z,70.56
2023-04-20T07:34:55.891Z,70.86
2023-04-20T07:37:25.163Z,69.94
2023-04-20T07:39:54.170Z,69.80
2023-04-20T07:42:22.116Z,69.77
2023-04-20T07:44:49.690Z,68.96
2023-04-20T07:47:18.500Z,67.51
2023-04-20T07:49:46.127Z,67.41
2023-04-20T07:52:17.018Z,67.09
2023-04-20T07:54:45.189Z,66.34
2023-04-20T07:57:12.817Z,66.27
2023-04-20T07:59:40.727Z,65.98
2023-04-20T08:02:08.979Z,65.75
2023-04-20T08:04:38.867Z,64.82
2023-04-20T08:07:06.692Z,65.17
2023-04-20T08:09:34.213Z,65.51
2023-04-20T08:12:01.755Z,66.42
2023-04-20T08:14:29.462Z,66.62
2023-04-20T08:16:57.060Z,66.59
2023-04-20T08:19:24.592Z,66.50
2023-04-20T08:21:54.249Z,66.41
2023-04-20T08:24:21.756Z,66.75
2023-04-20T08:26:49.471Z,66.41
2023-04-20T08:29:17.358Z,66.91
2023-04-20T08:31:44.924Z,66.88
2023-04-20T08:34:12.855Z,67.01
2023-04-20T08:36:40.573Z,66.83
2023-04-20T08:39:11.878Z,66.87
2023-04-20T08:41:39.458Z,67.18
2023-04-20T08:44:08.382Z,66.64
2023-04-20T08:46:36.192Z,66.81
2023-04-20T08:49:04.130Z,66.80
2023-04-20T08:51:32.434Z,67.58
2023-04-20T08:54:05.265Z,68.59
2023-04-20T08:56:37.200Z,68.65
2023-04-20T08:59:05.748Z,70.48
2023-04-20T09:01:36.312Z,69.77
2023-04-20T09:04:17.440Z,70.04
2023-04-20T09:06:48.021Z,69.65
2023-04-20T09:09:15.533Z,68.84
2023-04-20T09:11:44.590Z,69.14
2023-04-20T09:14:14.418Z,69.50
2023-04-20T09:16:50.456Z,68.19
2023-04-20T09:19:22.711Z,66.06
2023-04-20T09:21:50.893Z,65.55
2023-04-20T09:24:19.884Z,65.37
2023-04-20T09:26:49.053Z,64.18
2023-04-20T09:29:17.567Z,64.02
2023-04-20T09:31:45.278Z,62.96
2023-04-20T09:34:13.659Z,64.30
2023-04-20T09:36:42.565Z,65.71
2023-04-20T09:39:11.698Z,66.06
2023-04-20T09:41:40.463Z,66.28
2023-04-20T09:44:10.030Z,66.17
2023-04-20T09:46:39.713Z,66.05
2023-04-20T09:49:08.768Z,65.78
2023-04-20T09:51:38.464Z,66.20
2023-04-20T09:54:07.457Z,65.55
2023-04-20T09:56:36.149Z,65.13
2023-04-20T09:59:04.657Z,64.96
2023-04-20T10:01:35.928Z,63.40
2023-04-20T10:04:07.294Z,63.44
2023-04-20T10:06:36.504Z,63.26
2023-04-20T10:09:05.916Z,63.30
2023-04-20T10:11:45.054Z,62.58
2023-04-20T10:14:18.278Z,62.19
2023-04-20T10:16:48.095Z,63.22
2023-04-20T10:19:15.638Z,63.16
2023-04-20T10:21:47.654Z,62.28
2023-04-20T10:24:17.099Z,62.11
2023-04-20T10:26:47.232Z,61.56
2023-04-20T10:29:24.798Z,61.87
2023-04-20T10:31:54.053Z,61.13
2023-04-20T10:34:30.969Z,60.66
2023-04-20T10:37:08.325Z,58.93
2023-04-20T10:39:37.963Z,58.27
2023-04-20T10:42:05.567Z,57.86
2023-04-20T10:44:35.297Z,57.52
2023-04-20T10:47:04.116Z,57.72
2023-04-20T10:49:32.265Z,57.67
2023-04-20T10:51:59.892Z,57.39
2023-04-20T10:54:28.889Z,57.52
2023-04-20T10:56:57.052Z,57.40
2023-04-20T10:59:25.731Z,57.03
2023-04-20T11:01:54.050Z,56.62
2023-04-20T11:04:32.753Z,56.67
2023-04-20T11:07:07.025Z,57.26
2023-04-20T11:09:35.142Z,57.31
2023-04-20T11:12:04.095Z,57.70
2023-04-20T11:14:32.156Z,58.02
2023-04-20T11:17:04.308Z,57.04
2023-04-20T11:19:34.610Z,57.61
2023-04-20T11:22:02.741Z,57.22
2023-04-20T11:24:31.682Z,57.23
2023-04-20T11:26:59.658Z,57.54
2023-04-20T11:29:34.756Z,57.68
2023-04-20T11:32:04.913Z,57.81
2023-04-20T11:34:34.830Z,57.64
2023-04-20T11:37:05.126Z,57.99
2023-04-20T11:39:33.544Z,57.88
2023-04-20T11:42:02.025Z,58.29
2023-04-20T11:44:29.619Z,58.24
2023-04-20T11:46:58.001Z,58.38
2023-04-20T11:49:26.592Z,58.71
2023-04-20T11:51:55.920Z,58.82
2023-04-20T11:54:24.036Z,58.46
2023-04-20T11:56:52.009Z,58.47
2023-04-20T11:59:20.989Z,58.42
2023-04-20T12:01:49.053Z,58.52
2023-04-20T12:04:17.198Z,58.04
2023-04-20T12:06:45.124Z,58.19
2023-04-20T12:09:14.820Z,58.84
2023-04-20T12:11:42.394Z,58.80
2023-04-20T12:14:09.957Z,58.77
2023-04-20T12:16:37.503Z,58.67
2023-04-20T12:19:05.088Z,58.84
2023-04-20T12:21:33.008Z,59.38
2023-04-20T12:24:00.507Z,59.53
2023-04-20T12:26:37.934Z,59.72
2023-04-20T12:29:07.088Z,59.80
2023-04-20T12:31:35.577Z,60.02
2023-04-20T12:34:03.335Z,60.27
2023-04-20T12:36:31.967Z,60.54
2023-04-20T12:38:59.638Z,60.81
2023-04-20T12:41:27.117Z,61.19
2023-04-20T12:43:56.143Z,61.96
2023-04-20T12:46:23.722Z,61.44
2023-04-20T12:48:51.650Z,61.31
2023-04-20T12:51:19.187Z,61.53
2023-04-20T12:53:46.739Z,61.90
2023-04-20T12:56:14.734Z,61.99
2023-04-20T12:58:42.229Z,62.12
2023-04-20T13:01:11.151Z,62.14
2023-04-20T13:03:38.854Z,62.53
2023-04-20T13:06:07.192Z,62.33
2023-04-20T13:08:36.982Z,62.35
2023-04-20T13:11:04.809Z,62.53
2023-04-20T13:13:32.359Z,62.54
2023-04-20T13:16:00.956Z,62.61
2023-04-20T13:18:29.834Z,62.68
2023-04-20T13:20:57.344Z,62.94
2023-04-20T13:23:24.972Z,62.87
2023-04-20T13:25:52.549Z,62.79
2023-04-20T13:28:20.430Z,62.98
2023-04-20T13:30:48.301Z,62.68
2023-04-20T13:33:16.007Z,62.18
2023-04-20T13:35:44.932Z,63.00
2023-04-20T13:38:12.456Z,63.00
2023-04-20T13:40:40.120Z,63.12
2023-04-20T13:43:07.763Z,62.87
2023-04-20T13:45:35.315Z,62.59
2023-04-20T13:48:02.919Z,62.32
2023-04-20T13:50:30.461Z,62.46
2023-04-20T13:52:59.246Z,63.18
2023-04-20T13:55:27.239Z,63.42
2023-04-20T13:57:54.786Z,64.20
2023-04-20T14:00:23.609Z,64.51
2023-04-20T14:02:51.289Z,64.41
2023-04-20T14:05:18.831Z,64.27
2023-04-20T14:07:46.329Z,64.20
2023-04-20T14:10:15.215Z,64.22
2023-04-20T14:12:42.750Z,64.00
2023-04-20T14:15:11.258Z,63.63
2023-04-20T14:17:38.830Z,63.53
2023-04-20T14:20:07.838Z,63.26
2023-04-20T14:22:36.678Z,62.83
2023-04-20T14:25:04.610Z,62.90
2023-04-20T14:27:34.040Z,62.86
2023-04-20T14:30:01.560Z,63.24
2023-04-20T14:32:30.989Z,62.90
2023-04-20T14:34:58.548Z,63.39
2023-04-20T14:37:27.325Z,62.81
2023-04-20T14:39:55.016Z,62.56
2023-04-20T14:42:23.105Z,62.40
2023-04-20T14:44:52.337Z,62.87
2023-04-20T14:47:20.586Z,62.78
2023-04-20T14:49:48.201Z,62.95
2023-04-20T14:52:15.715Z,63.14
2023-04-20T14:54:43.219Z,63.82
2023-04-20T14:57:10.707Z,64.05
2023-04-20T14:59:41.230Z,62.98
2023-04-20T15:02:10.173Z,61.29
2023-04-20T15:04:37.911Z,60.09
2023-04-20T15:07:05.550Z,59.92
2023-04-20T15:09:33.937Z,59.77
2023-04-20T15:12:01.824Z,60.13
2023-04-20T15:14:29.418Z,60.29
2023-04-20T15:16:57.255Z,59.94
2023-04-20T15:19:26.253Z,59.94
2023-04-20T15:21:53.718Z,60.06
2023-04-20T15:24:21.235Z,60.29
2023-04-20T15:26:48.722Z,60.27
2023-04-20T15:29:16.385Z,60.17
2023-04-20T15:31:45.657Z,60.75
2023-04-20T15:34:15.358Z,60.99
2023-04-20T15:36:44.390Z,61.16
2023-04-20T15:39:12.441Z,61.30
2023-04-20T15:41:40.078Z,61.33
2023-04-20T15:44:07.634Z,61.69
2023-04-20T15:46:35.208Z,62.12
2023-04-20T15:49:02.806Z,62.41
2023-04-20T15:51:30.304Z,62.54
2023-04-20T15:53:59.132Z,62.87
2023-04-20T15:56:26.656Z,63.28
2023-04-20T15:58:54.208Z,63.33
2023-04-20T16:01:21.989Z,63.52
2023-04-20T16:03:50.668Z,63.51
2023-04-20T16:06:18.368Z,63.86
2023-04-20T16:08:47.461Z,64.02
2023-04-20T16:11:16.470Z,64.48
2023-04-20T16:13:43.984Z,64.57
2023-04-20T16:16:11.607Z,64.58
2023-04-20T16:18:39.101Z,64.88
2023-04-20T16:21:06.696Z,65.24
2023-04-20T16:23:34.176Z,65.47
2023-04-20T16:26:01.883Z,66.09
2023-04-20T16:28:31.609Z,66.45
2023-04-20T16:30:59.877Z,66.84
2023-04-20T16:33:28.104Z,66.90
2023-04-20T16:35:55.813Z,66.58
2023-04-20T16:38:23.591Z,67.02
2023-04-20T16:40:51.907Z,67.65
2023-04-20T16:43:19.423Z,67.52
2023-04-20T16:45:49.090Z,67.50
2023-04-20T16:48:16.562Z,67.84
2023-04-20T16:50:44.085Z,68.09
2023-04-20T16:53:11.601Z,68.52
2023-04-20T16:55:39.094Z,68.71
2023-04-20T16:58:06.635Z,69.04
2023-04-20T17:00:34.619Z,69.04
2023-04-20T17:03:06.739Z,69.48
2023-04-20T17:05:34.393Z,70.02
2023-04-20T17:08:01.983Z,70.57
2023-04-20T17:10:29.469Z,70.83
2023-04-20T17:12:56.946Z,70.71
2023-04-20T17:15:24.634Z,70.95
2023-04-20T17:17:52.168Z,71.32
2023-04-20T17:20:21.273Z,71.32
2023-04-20T17:22:48.868Z,72.65
2023-04-20T17:25:16.378Z,72.97
2023-04-20T17:27:43.874Z,73.88
2023-04-20T17:30:12.320Z,74.78
2023-04-20T17:32:39.807Z,75.34
2023-04-20T17:35:07.886Z,75.24
2023-04-20T17:37:37.230Z,76.34
2023-04-20T17:40:06.293Z,76.41
2023-04-20T17:42:33.927Z,76.49
2023-04-20T17:45:01.416Z,76.46
2023-04-20T17:47:31.105Z,77.22
2023-04-20T17:49:59.773Z,77.30
2023-04-20T17:52:27.284Z,77.62
2023-04-20T17:54:56.229Z,77.55
2023-04-20T17:57:23.850Z,77.45
2023-04-20T17:59:51.749Z,77.89
2023-04-20T18:02:20.135Z,78.22
2023-04-20T18:04:47.846Z,77.99
2023-04-20T18:07:16.901Z,78.67
2023-04-20T18:09:44.448Z,78.63
2023-04-20T18:12:13.299Z,79.00
2023-04-20T18:14:42.368Z,79.21
2023-04-20T18:17:09.843Z,79.38
2023-04-20T18:19:37.319Z,79.83
2023-04-20T18:22:05.041Z,80.03
2023-04-20T18:24:32.534Z,80.13
2023-04-20T18:27:00.783Z,80.36
2023-04-20T18:29:29.885Z,80.98
2023-04-20T18:31:59.334Z,81.00
2023-04-20T18:34:29.951Z,81.78
2023-04-20T18:36:57.921Z,81.92
2023-04-20T18:39:25.745Z,82.09
2023-04-20T18:41:53.232Z,82.03
2023-04-20T18:44:21.640Z,82.57
2023-04-20T18:46:50.928Z,82.92
2023-04-20T18:49:18.494Z,83.43
2023-04-20T18:51:46.055Z,83.11
2023-04-20T18:54:13.537Z,83.58
2023-04-20T18:56:41.174Z,83.90
2023-04-20T18:59:10.598Z,83.63
2023-04-20T19:01:40.578Z,83.76
2023-04-20T19:04:10.101Z,84.67
2023-04-20T19:06:37.747Z,84.72
2023-04-20T19:09:07.857Z,84.35
2023-04-20T19:11:36.037Z,84.32
2023-04-20T19:14:04.426Z,84.68
2023-04-20T19:16:35.077Z,84.66
2023-04-20T19:19:03.721Z,85.45
2023-04-20T19:21:33.148Z,84.98
2023-04-20T19:24:00.684Z,84.93
2023-04-20T19:26:28.257Z,84.94
2023-04-20T19:28:57.697Z,85.08
2023-04-20T19:31:26.391Z,85.16
2023-04-20T19:33:56.516Z,85.64
2023-04-20T19:36:25.030Z,85.54
2023-04-20T19:38:53.865Z,86.03
2023-04-20T19:41:21.487Z,86.12
2023-04-20T19:43:48.974Z,85.96
2023-04-20T19:46:17.120Z,86.22
2023-04-20T19:48:44.832Z,86.78
2023-04-20T19:51:12.511Z,86.61
2023-04-20T19:53:40.036Z,86.98
2023-04-20T19:56:08.895Z,87.05
2023-04-20T19:58:36.423Z,86.99
2023-04-20T20:01:04.833Z,87.01
2023-04-20T20:03:32.595Z,87.35
2023-04-20T20:06:00.648Z,87.46
2023-04-20T20:08:28.218Z,87.43
2023-04-20T20:10:55.672Z,87.65
2023-04-20T20:13:24.783Z,87.69
2023-04-20T20:15:53.526Z,87.84
2023-04-20T20:18:21.496Z,87.89
2023-04-20T20:20:50.439Z,88.11
2023-04-20T20:23:18.122Z,88.04
2023-04-20T20:25:45.604Z,88.30
2023-04-20T20:28:13.093Z,88.65
2023-04-20T20:30:45.043Z,88.59
2023-04-20T20:33:12.660Z,88.62
2023-04-20T20:35:40.835Z,88.92
2023-04-20T20:38:08.759Z,88.92
2023-04-20T20:40:36.404Z,90.25
2023-04-20T20:43:04.604Z,89.95
2023-04-20T20:45:32.515Z,90.09
2023-04-20T20:48:01.708Z,89.80
2023-04-20T20:50:29.295Z,90.23
2023-04-20T20:52:56.809Z,90.01
2023-04-20T20:55:24.519Z,89.93
2023-04-20T20:57:52.281Z,89.99
2023-04-20T21:00:20.232Z,90.05
2023-04-20T21:02:47.856Z,90.05
2023-04-20T21:05:16.839Z,90.19
2023-04-20T21:07:44.471Z,90.13
2023-04-20T21:10:12.488Z,90.46
2023-04-20T21:12:39.967Z,90.13
2023-04-20T21:15:10.070Z,90.25
2023-04-20T21:17:37.630Z,90.36
2023-04-20T21:20:06.273Z,90.58
2023-04-20T21:22:35.103Z,90.72
2023-04-20T21:25:02.571Z,90.68
2023-04-20T21:27:30.067Z,90.85
2023-04-20T21:29:57.561Z,91.29
2023-04-20T21:32:26.408Z,91.10
2023-04-20T21:34:54.299Z,91.12
2023-04-20T21:37:21.853Z,91.78
2023-04-20T21:39:51.444Z,91.76
2023-04-20T21:42:18.951Z,91.91
2023-04-20T21:44:46.508Z,92.29
2023-04-20T21:47:15.534Z,92.21
2023-04-20T21:49:43.782Z,92.34
2023-04-20T21:52:11.314Z,92.48
2023-04-20T21:54:40.767Z,92.28
2023-04-20T21:57:10.003Z,92.33
2023-04-20T21:59:37.565Z,92.34
2023-04-20T22:02:05.142Z,91.44
2023-04-20T22:04:35.065Z,92.20
2023-04-20T22:07:02.620Z,91.76
2023-04-20T22:09:30.366Z,91.94
2023-04-20T22:12:01.767Z,91.88
2023-04-20T22:14:30.940Z,91.72
2023-04-20T22:16:59.369Z,91.95
2023-04-20T22:19:26.874Z,92.41
2023-04-20T22:21:54.601Z,92.30
2023-04-20T22:24:22.062Z,91.96
2023-04-20T22:26:49.613Z,92.07
2023-04-20T22:29:17.188Z,92.16
2023-04-20T22:31:46.125Z,91.21
2023-04-20T22:34:13.729Z,91.28
2023-04-20T22:36:41.576Z,91.43
2023-04-20T22:39:09.145Z,92.03
2023-04-20T22:41:36.688Z,91.81
2023-04-20T22:44:04.255Z,91.52
2023-04-20T22:46:31.795Z,91.43
2023-04-20T22:49:01.002Z,91.53
2023-04-20T22:51:28.956Z,91.55
2023-04-20T22:53:56.669Z,90.68
2023-04-20T22:56:24.995Z,90.96
2023-04-20T22:58:52.455Z,91.22
2023-04-20T23:01:19.969Z,91.30
2023-04-20T23:03:47.543Z,91.21
2023-04-20T23:06:18.806Z,91.27
2023-04-20T23:08:46.880Z,91.66
2023-04-20T23:11:16.346Z,91.95
2023-04-20T23:13:44.315Z,91.54
2023-04-20T23:16:11.856Z,91.38
2023-04-20T23:18:39.457Z,91.31
2023-04-20T23:21:07.107Z,91.12
2023-04-20T23:23:35.901Z,90.80
2023-04-20T23:26:03.402Z,91.13
2023-04-20T23:28:30.906Z,91.54
2023-04-20T23:30:58.557Z,91.50
2023-04-20T23:33:26.428Z,92.07
2023-04-20T23:35:53.901Z,91.52
2023-04-20T23:38:21.399Z,90.10
2023-04-20T23:40:50.212Z,90.48
2023-04-20T23:43:17.704Z,90.88
2023-04-20T23:45:45.249Z,91.10
2023-04-20T23:48:12.781Z,91.63
2023-04-20T23:50:40.242Z,91.91
2023-04-20T23:53:09.588Z,91.95
2023-04-20T23:55:37.097Z,92.00
2023-04-20T23:58:05.894Z,91.54
